sensor_id;sensor_type;location;lat;lon;timestamp;temperature;humidity
20568;DHT22;10442;49.932;11.592;2022-12-08T00:01:28;6.30;76.30
20568;DHT22;10442;49.932;11.592;2022-12-08T00:03:57;6.30;76.20
20568;DHT22;10442;49.932;11.592;2022-12-08T00:06:30;6.20;76.20
20568;DHT22;10442;49.932;11.592;2022-12-08T00:09:34;6.20;76.10
20568;DHT22;10442;49.932;11.592;2022-12-08T00:12:08;6.20;76.00
20568;DHT22;10442;49.932;11.592;2022-12-08T00:14:44;6.20;76.00
20568;DHT22;10442;49.932;11.592;2022-12-08T00:17:14;6.20;75.90
20568;DHT22;10442;49.932;11.592;2022-12-08T00:19:43;6.20;76.00
20568;DHT22;10442;49.932;11.592;2022-12-08T00:22:11;6.20;75.90
20568;DHT22;10442;49.932;11.592;2022-12-08T00:24:40;6.20;75.90
20568;DHT22;10442;49.932;11.592;2022-12-08T00:27:08;6.20;75.90
20568;DHT22;10442;49.932;11.592;2022-12-08T00:29:36;6.20;75.90
20568;DHT22;10442;49.932;11.592;2022-12-08T00:32:04;6.20;75.90
20568;DHT22;10442;49.932;11.592;2022-12-08T00:34:32;6.20;75.80
20568;DHT22;10442;49.932;11.592;2022-12-08T00:37:00;6.10;75.70
20568;DHT22;10442;49.932;11.592;2022-12-08T00:39:27;6.10;75.80
20568;DHT22;10442;49.932;11.592;2022-12-08T00:41:54;6.10;76.00
20568;DHT22;10442;49.932;11.592;2022-12-08T00:44:40;6.10;76.10
20568;DHT22;10442;49.932;11.592;2022-12-08T00:47:09;6.10;76.20
20568;DHT22;10442;49.932;11.592;2022-12-08T00:49:36;6.10;76.20
20568;DHT22;10442;49.932;11.592;2022-12-08T00:52:04;6.10;76.20
20568;DHT22;10442;49.932;11.592;2022-12-08T00:54:31;6.10;76.30
20568;DHT22;10442;49.932;11.592;2022-12-08T00:56:58;6.10;76.30
20568;DHT22;10442;49.932;11.592;2022-12-08T00:59:26;6.10;76.20
20568;DHT22;10442;49.932;11.592;2022-12-08T01:01:53;6.10;76.20
20568;DHT22;10442;49.932;11.592;2022-12-08T01:04:20;6.10;76.20
20568;DHT22;10442;49.932;11.592;2022-12-08T01:06:48;6.20;76.20
20568;DHT22;10442;49.932;11.592;2022-12-08T01:09:16;6.20;76.20
20568;DHT22;10442;49.932;11.592;2022-12-08T01:11:45;6.20;76.10
20568;DHT22;10442;49.932;11.592;2022-12-08T01:14:13;6.20;75.90
20568;DHT22;10442;49.932;11.592;2022-12-08T01:16:41;6.20;75.90
20568;DHT22;10442;49.932;11.592;2022-12-08T01:19:10;6.20;75.80
20568;DHT22;10442;49.932;11.592;2022-12-08T01:21:39;6.20;75.80
20568;DHT22;10442;49.932;11.592;2022-12-08T01:24:10;6.20;75.80
20568;DHT22;10442;49.932;11.592;2022-12-08T01:26:38;6.20;75.80
20568;DHT22;10442;49.932;11.592;2022-12-08T01:29:05;6.20;75.80
20568;DHT22;10442;49.932;11.592;2022-12-08T01:31:33;6.20;75.70
20568;DHT22;10442;49.932;11.592;2022-12-08T01:34:01;6.20;75.70
20568;DHT22;10442;49.932;11.592;2022-12-08T01:36:30;6.20;75.60
20568;DHT22;10442;49.932;11.592;2022-12-08T01:39:00;6.10;75.40
20568;DHT22;10442;49.932;11.592;2022-12-08T01:41:30;6.20;75.50
20568;DHT22;10442;49.932;11.592;2022-12-08T01:46:31;6.10;75.40
20568;DHT22;10442;49.932;11.592;2022-12-08T01:51:59;6.10;75.40
20568;DHT22;10442;49.932;11.592;2022-12-08T01:54:33;6.10;75.50
20568;DHT22;10442;49.932;11.592;2022-12-08T01:57:10;6.10;75.30
20568;DHT22;10442;49.932;11.592;2022-12-08T01:59:45;6.10;76.00
20568;DHT22;10442;49.932;11.592;2022-12-08T02:02:14;6.10;75.20
20568;DHT22;10442;49.932;11.592;2022-12-08T02:04:42;6.10;75.30
20568;DHT22;10442;49.932;11.592;2022-12-08T02:07:11;6.10;75.30
20568;DHT22;10442;49.932;11.592;2022-12-08T02:09:40;6.10;75.20
20568;DHT22;10442;49.932;11.592;2022-12-08T02:12:09;6.10;75.20
20568;DHT22;10442;49.932;11.592;2022-12-08T02:14:37;6.10;75.20
20568;DHT22;10442;49.932;11.592;2022-12-08T02:19:51;6.10;76.00
20568;DHT22;10442;49.932;11.592;2022-12-08T02:22:39;6.10;75.10
20568;DHT22;10442;49.932;11.592;2022-12-08T02:41:48;6.10;74.90
20568;DHT22;10442;49.932;11.592;2022-12-08T02:44:23;6.00;74.80
20568;DHT22;10442;49.932;11.592;2022-12-08T02:46:57;6.00;75.00
20568;DHT22;10442;49.932;11.592;2022-12-08T02:49:30;6.00;74.80
20568;DHT22;10442;49.932;11.592;2022-12-08T02:54:32;6.00;74.70
20568;DHT22;10442;49.932;11.592;2022-12-08T02:57:18;6.00;74.80
20568;DHT22;10442;49.932;11.592;2022-12-08T02:59:55;6.00;74.80
20568;DHT22;10442;49.932;11.592;2022-12-08T03:05:39;6.00;74.90
20568;DHT22;10442;49.932;11.592;2022-12-08T03:08:15;6.00;75.00
20568;DHT22;10442;49.932;11.592;2022-12-08T03:13:24;5.90;75.00
20568;DHT22;10442;49.932;11.592;2022-12-08T03:15:55;5.90;75.30
20568;DHT22;10442;49.932;11.592;2022-12-08T03:18:27;5.90;75.50
20568;DHT22;10442;49.932;11.592;2022-12-08T03:20:56;5.90;75.70
20568;DHT22;10442;49.932;11.592;2022-12-08T03:23:25;5.80;75.70
20568;DHT22;10442;49.932;11.592;2022-12-08T03:26:22;5.80;75.90
20568;DHT22;10442;49.932;11.592;2022-12-08T03:28:51;5.80;76.00
20568;DHT22;10442;49.932;11.592;2022-12-08T03:31:19;5.80;76.20
20568;DHT22;10442;49.932;11.592;2022-12-08T03:33:50;5.80;76.20
20568;DHT22;10442;49.932;11.592;2022-12-08T03:36:19;5.80;76.30
20568;DHT22;10442;49.932;11.592;2022-12-08T03:38:50;5.80;76.30
20568;DHT22;10442;49.932;11.592;2022-12-08T03:41:21;5.80;76.30
20568;DHT22;10442;49.932;11.592;2022-12-08T03:43:51;5.80;76.40
20568;DHT22;10442;49.932;11.592;2022-12-08T03:46:20;5.80;76.30
20568;DHT22;10442;49.932;11.592;2022-12-08T03:48:47;5.90;76.30
20568;DHT22;10442;49.932;11.592;2022-12-08T03:51:16;5.80;76.10
20568;DHT22;10442;49.932;11.592;2022-12-08T03:53:44;5.80;76.00
20568;DHT22;10442;49.932;11.592;2022-12-08T03:58:49;5.90;76.10
20568;DHT22;10442;49.932;11.592;2022-12-08T04:01:17;5.90;76.20
20568;DHT22;10442;49.932;11.592;2022-12-08T04:03:44;5.90;76.20
20568;DHT22;10442;49.932;11.592;2022-12-08T04:06:12;5.90;76.10
20568;DHT22;10442;49.932;11.592;2022-12-08T04:08:39;5.90;76.10
20568;DHT22;10442;49.932;11.592;2022-12-08T04:11:07;5.80;76.00
20568;DHT22;10442;49.932;11.592;2022-12-08T04:13:36;5.80;76.10
20568;DHT22;10442;49.932;11.592;2022-12-08T04:16:04;5.90;76.10
20568;DHT22;10442;49.932;11.592;2022-12-08T04:18:34;5.90;76.10
20568;DHT22;10442;49.932;11.592;2022-12-08T04:21:01;5.90;75.90
20568;DHT22;10442;49.932;11.592;2022-12-08T04:23:29;5.90;76.70
20568;DHT22;10442;49.932;11.592;2022-12-08T04:25:56;5.80;75.90
20568;DHT22;10442;49.932;11.592;2022-12-08T04:28:24;5.80;75.90
20568;DHT22;10442;49.932;11.592;2022-12-08T04:30:51;5.80;76.00
20568;DHT22;10442;49.932;11.592;2022-12-08T04:33:18;5.80;76.00
20568;DHT22;10442;49.932;11.592;2022-12-08T04:35:46;5.80;76.10
20568;DHT22;10442;49.932;11.592;2022-12-08T04:38:13;5.80;76.20
20568;DHT22;10442;49.932;11.592;2022-12-08T04:40:40;5.80;76.20
20568;DHT22;10442;49.932;11.592;2022-12-08T04:43:08;5.80;76.10
20568;DHT22;10442;49.932;11.592;2022-12-08T04:45:38;5.80;76.10
20568;DHT22;10442;49.932;11.592;2022-12-08T04:48:06;5.80;76.10
20568;DHT22;10442;49.932;11.592;2022-12-08T04:50:34;5.80;76.00
20568;DHT22;10442;49.932;11.592;2022-12-08T04:53:01;5.80;76.10
20568;DHT22;10442;49.932;11.592;2022-12-08T04:55:29;5.80;76.20
20568;DHT22;10442;49.932;11.592;2022-12-08T04:57:56;5.80;76.20
20568;DHT22;10442;49.932;11.592;2022-12-08T05:00:23;5.80;76.20
20568;DHT22;10442;49.932;11.592;2022-12-08T05:02:51;5.70;76.30
20568;DHT22;10442;49.932;11.592;2022-12-08T05:05:18;5.70;76.50
20568;DHT22;10442;49.932;11.592;2022-12-08T05:07:45;5.70;76.40
20568;DHT22;10442;49.932;11.592;2022-12-08T05:10:13;5.70;76.50
20568;DHT22;10442;49.932;11.592;2022-12-08T05:12:40;5.80;76.70
20568;DHT22;10442;49.932;11.592;2022-12-08T05:15:08;5.70;76.70
20568;DHT22;10442;49.932;11.592;2022-12-08T05:17:36;5.70;76.60
20568;DHT22;10442;49.932;11.592;2022-12-08T05:20:04;5.70;76.60
20568;DHT22;10442;49.932;11.592;2022-12-08T05:22:32;5.70;76.60
20568;DHT22;10442;49.932;11.592;2022-12-08T05:25:00;5.70;76.60
20568;DHT22;10442;49.932;11.592;2022-12-08T05:27:27;5.70;76.60
20568;DHT22;10442;49.932;11.592;2022-12-08T05:29:54;5.70;76.60
20568;DHT22;10442;49.932;11.592;2022-12-08T05:32:22;5.70;76.60
20568;DHT22;10442;49.932;11.592;2022-12-08T05:34:49;5.70;76.60
20568;DHT22;10442;49.932;11.592;2022-12-08T05:37:17;5.70;76.60
20568;DHT22;10442;49.932;11.592;2022-12-08T05:39:44;5.70;76.60
20568;DHT22;10442;49.932;11.592;2022-12-08T05:42:12;5.70;76.60
20568;DHT22;10442;49.932;11.592;2022-12-08T05:44:39;5.60;76.60
20568;DHT22;10442;49.932;11.592;2022-12-08T05:47:06;5.60;76.60
20568;DHT22;10442;49.932;11.592;2022-12-08T05:49:34;5.60;76.60
20568;DHT22;10442;49.932;11.592;2022-12-08T05:52:01;5.60;76.60
20568;DHT22;10442;49.932;11.592;2022-12-08T05:54:29;5.60;76.70
20568;DHT22;10442;49.932;11.592;2022-12-08T05:56:56;5.60;76.80
20568;DHT22;10442;49.932;11.592;2022-12-08T05:59:23;5.60;76.80
20568;DHT22;10442;49.932;11.592;2022-12-08T06:01:51;5.60;76.80
20568;DHT22;10442;49.932;11.592;2022-12-08T06:04:18;5.60;76.80
20568;DHT22;10442;49.932;11.592;2022-12-08T06:06:46;5.60;76.70
20568;DHT22;10442;49.932;11.592;2022-12-08T06:09:13;5.60;76.80
20568;DHT22;10442;49.932;11.592;2022-12-08T06:11:41;5.60;76.90
20568;DHT22;10442;49.932;11.592;2022-12-08T06:14:10;5.60;76.90
20568;DHT22;10442;49.932;11.592;2022-12-08T06:16:38;5.60;77.80
20568;DHT22;10442;49.932;11.592;2022-12-08T06:19:06;5.60;77.00
20568;DHT22;10442;49.932;11.592;2022-12-08T06:21:33;5.60;77.10
20568;DHT22;10442;49.932;11.592;2022-12-08T06:24:01;5.60;77.00
20568;DHT22;10442;49.932;11.592;2022-12-08T06:26:28;5.60;77.00
20568;DHT22;10442;49.932;11.592;2022-12-08T06:28:56;5.60;77.00
20568;DHT22;10442;49.932;11.592;2022-12-08T06:31:24;5.60;76.90
20568;DHT22;10442;49.932;11.592;2022-12-08T06:33:53;5.60;76.80
20568;DHT22;10442;49.932;11.592;2022-12-08T06:36:24;5.60;76.70
20568;DHT22;10442;49.932;11.592;2022-12-08T06:38:51;5.60;76.70
20568;DHT22;10442;49.932;11.592;2022-12-08T06:41:19;5.60;76.70
20568;DHT22;10442;49.932;11.592;2022-12-08T06:43:47;5.60;76.70
20568;DHT22;10442;49.932;11.592;2022-12-08T06:46:16;5.60;76.70
20568;DHT22;10442;49.932;11.592;2022-12-08T06:48:45;5.60;76.80
20568;DHT22;10442;49.932;11.592;2022-12-08T06:51:16;5.60;76.70
20568;DHT22;10442;49.932;11.592;2022-12-08T06:53:45;5.60;76.70
20568;DHT22;10442;49.932;11.592;2022-12-08T06:56:14;5.60;76.70
20568;DHT22;10442;49.932;11.592;2022-12-08T06:58:42;5.60;76.60
20568;DHT22;10442;49.932;11.592;2022-12-08T07:01:18;5.60;76.60
20568;DHT22;10442;49.932;11.592;2022-12-08T07:03:46;5.60;76.70
20568;DHT22;10442;49.932;11.592;2022-12-08T07:06:15;5.60;76.60
20568;DHT22;10442;49.932;11.592;2022-12-08T07:08:44;5.60;76.60
20568;DHT22;10442;49.932;11.592;2022-12-08T07:11:11;5.60;76.50
20568;DHT22;10442;49.932;11.592;2022-12-08T07:13:47;5.60;76.60
20568;DHT22;10442;49.932;11.592;2022-12-08T07:16:14;5.60;76.60
20568;DHT22;10442;49.932;11.592;2022-12-08T07:18:42;5.60;76.50
20568;DHT22;10442;49.932;11.592;2022-12-08T07:21:12;5.60;76.30
20568;DHT22;10442;49.932;11.592;2022-12-08T07:23:41;5.60;76.40
20568;DHT22;10442;49.932;11.592;2022-12-08T07:26:11;5.60;76.40
20568;DHT22;10442;49.932;11.592;2022-12-08T07:28:40;5.60;76.20
20568;DHT22;10442;49.932;11.592;2022-12-08T07:31:19;5.60;76.20
20568;DHT22;10442;49.932;11.592;2022-12-08T07:33:47;5.60;76.30
20568;DHT22;10442;49.932;11.592;2022-12-08T07:36:16;5.60;76.40
20568;DHT22;10442;49.932;11.592;2022-12-08T07:38:44;5.60;76.50
20568;DHT22;10442;49.932;11.592;2022-12-08T07:41:13;5.60;76.60
20568;DHT22;10442;49.932;11.592;2022-12-08T07:43:41;5.60;76.50
20568;DHT22;10442;49.932;11.592;2022-12-08T07:46:13;5.60;76.60
20568;DHT22;10442;49.932;11.592;2022-12-08T07:48:41;5.60;76.60
20568;DHT22;10442;49.932;11.592;2022-12-08T07:51:10;5.70;76.60
20568;DHT22;10442;49.932;11.592;2022-12-08T07:53:38;5.70;76.50
20568;DHT22;10442;49.932;11.592;2022-12-08T07:56:10;5.70;76.40
20568;DHT22;10442;49.932;11.592;2022-12-08T07:58:39;5.70;76.40
20568;DHT22;10442;49.932;11.592;2022-12-08T08:01:27;5.70;76.40
20568;DHT22;10442;49.932;11.592;2022-12-08T08:03:56;5.70;76.40
20568;DHT22;10442;49.932;11.592;2022-12-08T08:06:24;5.70;76.40
20568;DHT22;10442;49.932;11.592;2022-12-08T08:08:52;5.70;76.30
20568;DHT22;10442;49.932;11.592;2022-12-08T08:11:19;5.70;76.30
20568;DHT22;10442;49.932;11.592;2022-12-08T08:13:51;5.70;76.50
20568;DHT22;10442;49.932;11.592;2022-12-08T08:16:19;5.70;76.50
20568;DHT22;10442;49.932;11.592;2022-12-08T08:18:49;5.70;76.50
20568;DHT22;10442;49.932;11.592;2022-12-08T08:21:19;5.70;76.50
20568;DHT22;10442;49.932;11.592;2022-12-08T08:24:07;5.70;76.50
20568;DHT22;10442;49.932;11.592;2022-12-08T08:26:36;5.80;76.40
20568;DHT22;10442;49.932;11.592;2022-12-08T08:29:04;5.80;76.40
20568;DHT22;10442;49.932;11.592;2022-12-08T08:31:32;5.80;76.30
20568;DHT22;10442;49.932;11.592;2022-12-08T08:33:59;5.80;76.30
20568;DHT22;10442;49.932;11.592;2022-12-08T08:36:32;5.80;76.20
20568;DHT22;10442;49.932;11.592;2022-12-08T08:39:00;5.90;76.00
20568;DHT22;10442;49.932;11.592;2022-12-08T08:41:27;5.90;75.70
20568;DHT22;10442;49.932;11.592;2022-12-08T08:43:55;5.90;75.60
20568;DHT22;10442;49.932;11.592;2022-12-08T08:46:23;5.90;75.80
20568;DHT22;10442;49.932;11.592;2022-12-08T08:48:52;5.90;75.80
20568;DHT22;10442;49.932;11.592;2022-12-08T08:51:20;5.90;75.70
20568;DHT22;10442;49.932;11.592;2022-12-08T08:53:47;5.90;75.60
20568;DHT22;10442;49.932;11.592;2022-12-08T08:56:17;5.90;75.40
20568;DHT22;10442;49.932;11.592;2022-12-08T08:58:49;5.90;75.20
20568;DHT22;10442;49.932;11.592;2022-12-08T09:01:20;5.90;75.10
20568;DHT22;10442;49.932;11.592;2022-12-08T09:03:48;5.90;75.10
20568;DHT22;10442;49.932;11.592;2022-12-08T09:06:16;6.00;75.10
20568;DHT22;10442;49.932;11.592;2022-12-08T09:08:45;6.00;75.20
20568;DHT22;10442;49.932;11.592;2022-12-08T09:11:14;6.00;75.10
20568;DHT22;10442;49.932;11.592;2022-12-08T09:13:41;6.00;74.80
20568;DHT22;10442;49.932;11.592;2022-12-08T09:16:10;6.00;74.80
20568;DHT22;10442;49.932;11.592;2022-12-08T09:18:38;6.00;74.70
20568;DHT22;10442;49.932;11.592;2022-12-08T09:21:08;6.00;74.50
20568;DHT22;10442;49.932;11.592;2022-12-08T09:23:38;6.00;74.60
20568;DHT22;10442;49.932;11.592;2022-12-08T09:26:07;6.00;74.60
20568;DHT22;10442;49.932;11.592;2022-12-08T09:28:36;6.00;74.60
20568;DHT22;10442;49.932;11.592;2022-12-08T09:31:05;6.10;74.80
20568;DHT22;10442;49.932;11.592;2022-12-08T09:33:33;6.10;74.80
20568;DHT22;10442;49.932;11.592;2022-12-08T09:36:03;6.10;74.80
20568;DHT22;10442;49.932;11.592;2022-12-08T09:38:33;6.10;74.60
20568;DHT22;10442;49.932;11.592;2022-12-08T09:41:03;6.10;74.50
20568;DHT22;10442;49.932;11.592;2022-12-08T09:46:33;6.20;74.30
20568;DHT22;10442;49.932;11.592;2022-12-08T09:49:03;6.10;74.00
20568;DHT22;10442;49.932;11.592;2022-12-08T09:51:37;6.10;74.00
20568;DHT22;10442;49.932;11.592;2022-12-08T09:54:21;6.10;74.00
20568;DHT22;10442;49.932;11.592;2022-12-08T09:56:54;6.10;74.00
20568;DHT22;10442;49.932;11.592;2022-12-08T09:59:34;6.10;74.10
20568;DHT22;10442;49.932;11.592;2022-12-08T10:02:18;6.10;74.10
20568;DHT22;10442;49.932;11.592;2022-12-08T10:04:47;6.10;74.00
20568;DHT22;10442;49.932;11.592;2022-12-08T10:07:22;6.10;74.20
20568;DHT22;10442;49.932;11.592;2022-12-08T10:10:25;6.00;74.00
20568;DHT22;10442;49.932;11.592;2022-12-08T10:13:48;6.00;74.20
20568;DHT22;10442;49.932;11.592;2022-12-08T10:16:32;6.00;74.30
20568;DHT22;10442;49.932;11.592;2022-12-08T10:19:17;6.00;74.20
20568;DHT22;10442;49.932;11.592;2022-12-08T10:21:46;6.00;74.20
20568;DHT22;10442;49.932;11.592;2022-12-08T10:24:25;5.90;74.40
20568;DHT22;10442;49.932;11.592;2022-12-08T10:26:54;5.90;74.50
20568;DHT22;10442;49.932;11.592;2022-12-08T10:29:23;5.90;74.30
20568;DHT22;10442;49.932;11.592;2022-12-08T10:31:51;5.90;74.40
20568;DHT22;10442;49.932;11.592;2022-12-08T10:34:22;5.90;74.50
20568;DHT22;10442;49.932;11.592;2022-12-08T10:36:54;5.90;74.70
20568;DHT22;10442;49.932;11.592;2022-12-08T10:39:37;5.90;74.90
20568;DHT22;10442;49.932;11.592;2022-12-08T10:42:23;5.90;74.60
20568;DHT22;10442;49.932;11.592;2022-12-08T10:45:29;5.90;74.60
20568;DHT22;10442;49.932;11.592;2022-12-08T10:48:01;5.90;74.50
20568;DHT22;10442;49.932;11.592;2022-12-08T10:50:35;5.90;74.60
20568;DHT22;10442;49.932;11.592;2022-12-08T10:53:22;5.90;74.50
20568;DHT22;10442;49.932;11.592;2022-12-08T10:58:35;6.00;74.80
20568;DHT22;10442;49.932;11.592;2022-12-08T11:01:08;6.00;74.90
20568;DHT22;10442;49.932;11.592;2022-12-08T11:04:11;6.00;74.80
20568;DHT22;10442;49.932;11.592;2022-12-08T11:06:40;6.00;74.70
20568;DHT22;10442;49.932;11.592;2022-12-08T11:14:57;6.10;74.80
20568;DHT22;10442;49.932;11.592;2022-12-08T11:17:35;6.20;74.80
20568;DHT22;10442;49.932;11.592;2022-12-08T11:27:39;6.30;74.40
20568;DHT22;10442;49.932;11.592;2022-12-08T11:30:23;6.40;74.40
20568;DHT22;10442;49.932;11.592;2022-12-08T11:32:56;6.40;74.10
20568;DHT22;10442;49.932;11.592;2022-12-08T11:35:29;6.50;74.00
20568;DHT22;10442;49.932;11.592;2022-12-08T11:38:04;6.50;74.00
20568;DHT22;10442;49.932;11.592;2022-12-08T11:41:02;6.50;74.00
20568;DHT22;10442;49.932;11.592;2022-12-08T11:46:22;6.50;73.80
20568;DHT22;10442;49.932;11.592;2022-12-08T11:49:10;6.50;73.80
20568;DHT22;10442;49.932;11.592;2022-12-08T11:54:33;6.60;73.80
20568;DHT22;10442;49.932;11.592;2022-12-08T11:57:09;6.60;73.70
20568;DHT22;10442;49.932;11.592;2022-12-08T11:59:41;6.60;73.50
20568;DHT22;10442;49.932;11.592;2022-12-08T12:05:04;6.60;73.80
20568;DHT22;10442;49.932;11.592;2022-12-08T12:13:39;6.70;73.80
20568;DHT22;10442;49.932;11.592;2022-12-08T12:19:00;6.70;73.40
20568;DHT22;10442;49.932;11.592;2022-12-08T12:21:35;6.80;73.30
20568;DHT22;10442;49.932;11.592;2022-12-08T12:24:09;6.80;73.30
20568;DHT22;10442;49.932;11.592;2022-12-08T12:26:56;6.90;73.40
20568;DHT22;10442;49.932;11.592;2022-12-08T12:29:31;7.00;74.10
20568;DHT22;10442;49.932;11.592;2022-12-08T12:32:06;7.00;73.20
20568;DHT22;10442;49.932;11.592;2022-12-08T12:34:36;7.10;73.50
20568;DHT22;10442;49.932;11.592;2022-12-08T12:37:17;7.20;73.10
20568;DHT22;10442;49.932;11.592;2022-12-08T12:42:47;7.40;72.50
20568;DHT22;10442;49.932;11.592;2022-12-08T12:53:03;7.60;71.10
20568;DHT22;10442;49.932;11.592;2022-12-08T13:01:35;7.60;70.90
20568;DHT22;10442;49.932;11.592;2022-12-08T13:04:08;7.50;70.70
20568;DHT22;10442;49.932;11.592;2022-12-08T13:06:43;7.50;70.70
20568;DHT22;10442;49.932;11.592;2022-12-08T13:09:20;7.40;70.50
20568;DHT22;10442;49.932;11.592;2022-12-08T13:11:54;7.40;70.60
20568;DHT22;10442;49.932;11.592;2022-12-08T13:14:34;7.40;70.90
20568;DHT22;10442;49.932;11.592;2022-12-08T13:17:10;7.30;70.80
20568;DHT22;10442;49.932;11.592;2022-12-08T13:19:40;7.30;71.10
20568;DHT22;10442;49.932;11.592;2022-12-08T13:22:49;7.30;71.20
20568;DHT22;10442;49.932;11.592;2022-12-08T13:28:26;7.40;71.40
20568;DHT22;10442;49.932;11.592;2022-12-08T13:36:26;7.30;71.20
20568;DHT22;10442;49.932;11.592;2022-12-08T13:38:57;7.30;71.30
20568;DHT22;10442;49.932;11.592;2022-12-08T13:41:37;7.20;71.40
20568;DHT22;10442;49.932;11.592;2022-12-08T13:44:22;7.20;71.30
20568;DHT22;10442;49.932;11.592;2022-12-08T13:47:17;7.20;71.20
20568;DHT22;10442;49.932;11.592;2022-12-08T13:50:16;7.10;71.30
20568;DHT22;10442;49.932;11.592;2022-12-08T13:53:27;7.10;71.40
20568;DHT22;10442;49.932;11.592;2022-12-08T13:56:16;7.10;71.30
20568;DHT22;10442;49.932;11.592;2022-12-08T13:59:26;7.00;71.50
20568;DHT22;10442;49.932;11.592;2022-12-08T14:01:57;7.00;71.80
20568;DHT22;10442;49.932;11.592;2022-12-08T14:04:26;7.00;71.70
20568;DHT22;10442;49.932;11.592;2022-12-08T14:07:14;6.90;71.60
20568;DHT22;10442;49.932;11.592;2022-12-08T14:09:42;6.90;71.70
20568;DHT22;10442;49.932;11.592;2022-12-08T14:12:25;6.90;71.80
20568;DHT22;10442;49.932;11.592;2022-12-08T14:14:59;6.80;71.80
20568;DHT22;10442;49.932;11.592;2022-12-08T14:17:31;6.80;71.80
20568;DHT22;10442;49.932;11.592;2022-12-08T14:22:47;6.70;71.80
20568;DHT22;10442;49.932;11.592;2022-12-08T14:25:17;6.70;71.90
20568;DHT22;10442;49.932;11.592;2022-12-08T14:27:46;6.70;71.90
20568;DHT22;10442;49.932;11.592;2022-12-08T14:30:17;6.70;71.90
20568;DHT22;10442;49.932;11.592;2022-12-08T14:32:50;6.70;71.90
20568;DHT22;10442;49.932;11.592;2022-12-08T14:35:33;6.70;72.00
20568;DHT22;10442;49.932;11.592;2022-12-08T14:38:12;6.70;72.00
20568;DHT22;10442;49.932;11.592;2022-12-08T14:40:42;6.70;71.90
20568;DHT22;10442;49.932;11.592;2022-12-08T14:53:52;6.60;71.90
20568;DHT22;10442;49.932;11.592;2022-12-08T14:56:32;6.60;71.90
20568;DHT22;10442;49.932;11.592;2022-12-08T14:59:05;6.60;72.00
20568;DHT22;10442;49.932;11.592;2022-12-08T15:01:35;6.60;72.00
20568;DHT22;10442;49.932;11.592;2022-12-08T15:04:28;6.60;72.20
20568;DHT22;10442;49.932;11.592;2022-12-08T15:07:05;6.60;72.10
20568;DHT22;10442;49.932;11.592;2022-12-08T15:12:14;6.50;72.10
20568;DHT22;10442;49.932;11.592;2022-12-08T15:14:57;6.50;72.10
20568;DHT22;10442;49.932;11.592;2022-12-08T15:17:41;6.50;72.20
20568;DHT22;10442;49.932;11.592;2022-12-08T15:23:01;6.50;72.10
20568;DHT22;10442;49.932;11.592;2022-12-08T15:25:29;6.50;72.20
20568;DHT22;10442;49.932;11.592;2022-12-08T15:28:01;6.50;72.20
20568;DHT22;10442;49.932;11.592;2022-12-08T15:30:29;6.50;72.30
20568;DHT22;10442;49.932;11.592;2022-12-08T15:32:57;6.50;72.30
20568;DHT22;10442;49.932;11.592;2022-12-08T15:35:25;6.50;72.40
20568;DHT22;10442;49.932;11.592;2022-12-08T15:37:53;6.50;72.30
20568;DHT22;10442;49.932;11.592;2022-12-08T15:40:21;6.50;72.40
20568;DHT22;10442;49.932;11.592;2022-12-08T15:42:49;6.50;72.40
20568;DHT22;10442;49.932;11.592;2022-12-08T15:45:17;6.50;72.50
20568;DHT22;10442;49.932;11.592;2022-12-08T15:47:44;6.50;72.60
20568;DHT22;10442;49.932;11.592;2022-12-08T15:50:14;6.40;72.50
20568;DHT22;10442;49.932;11.592;2022-12-08T15:52:44;6.50;72.60
20568;DHT22;10442;49.932;11.592;2022-12-08T15:55:13;6.50;72.80
20568;DHT22;10442;49.932;11.592;2022-12-08T15:57:50;6.50;72.70
20568;DHT22;10442;49.932;11.592;2022-12-08T16:00:38;6.50;72.60
20568;DHT22;10442;49.932;11.592;2022-12-08T16:03:27;6.50;72.60
20568;DHT22;10442;49.932;11.592;2022-12-08T16:06:18;6.40;72.50
20568;DHT22;10442;49.932;11.592;2022-12-08T16:09:24;6.40;72.70
20568;DHT22;10442;49.932;11.592;2022-12-08T16:11:55;6.40;72.80
20568;DHT22;10442;49.932;11.592;2022-12-08T16:14:42;6.40;72.80
20568;DHT22;10442;49.932;11.592;2022-12-08T16:17:31;6.40;72.90
20568;DHT22;10442;49.932;11.592;2022-12-08T16:19:59;6.40;73.00
20568;DHT22;10442;49.932;11.592;2022-12-08T16:22:28;6.40;73.10
20568;DHT22;10442;49.932;11.592;2022-12-08T16:25:16;6.40;73.10
20568;DHT22;10442;49.932;11.592;2022-12-08T16:27:49;6.30;73.00
20568;DHT22;10442;49.932;11.592;2022-12-08T16:30:29;6.30;73.00
20568;DHT22;10442;49.932;11.592;2022-12-08T16:32:57;6.30;73.10
20568;DHT22;10442;49.932;11.592;2022-12-08T16:35:24;6.30;73.20
20568;DHT22;10442;49.932;11.592;2022-12-08T16:37:52;6.30;73.30
20568;DHT22;10442;49.932;11.592;2022-12-08T16:40:20;6.30;73.30
20568;DHT22;10442;49.932;11.592;2022-12-08T16:42:48;6.30;73.30
20568;DHT22;10442;49.932;11.592;2022-12-08T16:45:25;6.30;73.30
20568;DHT22;10442;49.932;11.592;2022-12-08T16:47:55;6.30;73.40
20568;DHT22;10442;49.932;11.592;2022-12-08T16:50:33;6.30;73.40
20568;DHT22;10442;49.932;11.592;2022-12-08T16:53:06;6.30;73.30
20568;DHT22;10442;49.932;11.592;2022-12-08T16:55:35;6.30;73.30
20568;DHT22;10442;49.932;11.592;2022-12-08T16:58:03;6.30;73.30
20568;DHT22;10442;49.932;11.592;2022-12-08T17:00:32;6.30;73.30
20568;DHT22;10442;49.932;11.592;2022-12-08T17:03:05;6.30;73.30
20568;DHT22;10442;49.932;11.592;2022-12-08T17:05:34;6.30;73.30
20568;DHT22;10442;49.932;11.592;2022-12-08T17:08:02;6.30;73.20
20568;DHT22;10442;49.932;11.592;2022-12-08T17:10:30;6.20;73.10
20568;DHT22;10442;49.932;11.592;2022-12-08T17:13:01;6.30;73.10
20568;DHT22;10442;49.932;11.592;2022-12-08T17:15:28;6.20;73.00
20568;DHT22;10442;49.932;11.592;2022-12-08T17:17:56;6.20;73.00
20568;DHT22;10442;49.932;11.592;2022-12-08T17:20:25;6.20;72.90
20568;DHT22;10442;49.932;11.592;2022-12-08T17:22:57;6.20;72.90
20568;DHT22;10442;49.932;11.592;2022-12-08T17:25:25;6.20;73.00
20568;DHT22;10442;49.932;11.592;2022-12-08T17:27:53;6.10;72.90
20568;DHT22;10442;49.932;11.592;2022-12-08T17:30:21;6.10;73.00
20568;DHT22;10442;49.932;11.592;2022-12-08T17:32:50;6.10;73.10
20568;DHT22;10442;49.932;11.592;2022-12-08T17:35:19;6.00;73.10
20568;DHT22;10442;49.932;11.592;2022-12-08T17:37:46;6.00;73.20
20568;DHT22;10442;49.932;11.592;2022-12-08T17:40:14;5.90;73.20
20568;DHT22;10442;49.932;11.592;2022-12-08T17:42:42;5.90;73.20
20568;DHT22;10442;49.932;11.592;2022-12-08T17:45:10;5.90;73.30
20568;DHT22;10442;49.932;11.592;2022-12-08T17:47:38;5.90;73.40
20568;DHT22;10442;49.932;11.592;2022-12-08T17:50:06;5.80;73.40
20568;DHT22;10442;49.932;11.592;2022-12-08T17:52:34;5.80;73.40
20568;DHT22;10442;49.932;11.592;2022-12-08T17:55:02;5.80;73.50
20568;DHT22;10442;49.932;11.592;2022-12-08T17:57:30;5.80;73.60